createdAt,value
2019-02-06T04:01:46.504Z,0.00
2019-02-06T04:02:46.823Z,0.00
2019-02-06T04:03:47.322Z,0.00
2019-02-06T04:04:47.526Z,0.00
2019-02-06T04:05:47.891Z,0.00
2019-02-06T04:06:55.098Z,0.00
2019-02-06T04:07:48.986Z,0.00
2019-02-06T04:08:47.831Z,0.00
2019-02-06T04:09:46.489Z,0.00
2019-02-06T04:10:46.209Z,0.00
2019-02-06T04:11:46.791Z,0.00
2019-02-06T04:12:47.083Z,0.00
2019-02-06T04:13:46.589Z,0.00
2019-02-06T04:14:47.248Z,0.00
2019-02-06T04:15:46.953Z,0.00
2019-02-06T04:16:49.250Z,0.00
2019-02-06T04:17:47.406Z,0.00
2019-02-06T04:18:47.488Z,0.00
2019-02-06T04:19:47.638Z,0.00
2019-02-06T04:20:47.784Z,0.00
2019-02-06T04:21:48.910Z,0.00
2019-02-06T04:22:48.120Z,0.00
2019-02-06T04:23:48.743Z,0.00
2019-02-06T04:24:51.526Z,0.00
2019-02-06T04:25:48.442Z,0.00
2019-02-06T04:26:48.580Z,0.00
2019-02-06T04:27:48.690Z,0.00
2019-02-06T04:28:49.022Z,0.00
2019-02-06T04:29:49.141Z,0.00
2019-02-06T04:30:49.298Z,0.00
2019-02-06T04:31:49.459Z,0.00
2019-02-06T04:32:49.584Z,0.00
2019-02-06T04:33:49.814Z,0.00
2019-02-06T04:34:49.894Z,0.00
2019-02-06T04:35:50.011Z,0.00
2019-02-06T04:36:50.206Z,0.00
2019-02-06T04:37:50.371Z,0.00
2019-02-06T04:38:50.663Z,0.00
2019-02-06T04:39:50.781Z,0.00
2019-02-06T04:40:50.897Z,0.00
2019-02-06T04:41:51.001Z,0.00
2019-02-06T04:42:51.203Z,0.00
2019-02-06T04:43:51.333Z,0.00
2019-02-06T04:44:51.539Z,0.00
2019-02-06T04:45:51.577Z,0.00
2019-02-06T04:46:51.896Z,0.00
2019-02-06T04:47:52.034Z,0.00
2019-02-06T04:48:52.277Z,0.00
2019-02-06T04:49:52.462Z,0.00
2019-02-06T04:50:52.650Z,0.00
2019-02-06T04:51:52.744Z,0.00
2019-02-06T04:52:53.032Z,0.00
2019-02-06T04:53:53.136Z,0.00
2019-02-06T04:54:53.425Z,0.00
2019-02-06T04:55:53.426Z,0.00
2019-02-06T04:56:53.746Z,0.00
2019-02-06T04:57:54.009Z,0.00
2019-02-06T04:58:54.008Z,0.00
2019-02-06T04:59:54.187Z,0.00
2019-02-06T05:00:54.328Z,0.00
2019-02-06T05:01:54.563Z,0.00
2019-02-06T05:02:54.730Z,0.00
2019-02-06T05:03:54.783Z,0.00
2019-02-06T05:04:55.064Z,0.00
2019-02-06T05:05:55.203Z,0.00
2019-02-06T05:06:55.369Z,0.00
2019-02-06T05:07:55.599Z,0.00
2019-02-06T05:08:55.649Z,0.00
2019-02-06T05:09:55.826Z,0.00
2019-02-06T05:10:55.942Z,0.00
2019-02-06T05:11:56.212Z,0.00
2019-02-06T05:12:56.340Z,0.00
2019-02-06T05:13:56.529Z,0.00
2019-02-06T05:14:56.717Z,0.00
2019-02-06T05:15:57.886Z,0.00
2019-02-06T05:16:57.108Z,0.00
2019-02-06T05:17:57.342Z,0.00
2019-02-06T05:18:57.391Z,0.00
2019-02-06T05:19:57.577Z,0.00
2019-02-06T05:20:57.816Z,0.00
2019-02-06T05:21:57.971Z,0.00
2019-02-06T05:22:58.215Z,0.00
2019-02-06T05:23:58.525Z,0.00
2019-02-06T05:24:58.562Z,0.00
2019-02-06T05:25:58.617Z,0.00
2019-02-06T05:26:59.042Z,0.00
2019-02-06T05:27:59.092Z,0.00
2019-02-06T05:28:59.199Z,0.00
2019-02-06T05:29:59.435Z,0.00
2019-02-06T05:30:59.495Z,0.00
2019-02-06T05:31:59.636Z,0.00
2019-02-06T05:32:59.845Z,0.00
2019-02-06T05:33:59.978Z,0.00
2019-02-06T05:35:00.012Z,0.00
2019-02-06T05:36:00.358Z,0.00
2019-02-06T05:37:00.611Z,0.00
2019-02-06T05:38:00.716Z,0.00
2019-02-06T05:39:00.958Z,0.00
2019-02-06T05:40:01.105Z,0.00
2019-02-06T05:41:01.304Z,0.00
2019-02-06T05:42:01.407Z,0.00
2019-02-06T05:43:01.739Z,0.00
2019-02-06T05:44:01.762Z,0.00
2019-02-06T05:45:02.603Z,0.00
2019-02-06T05:46:02.607Z,0.00
2019-02-06T05:47:02.810Z,0.00
2019-02-06T05:48:02.810Z,0.00
2019-02-06T05:49:02.831Z,0.00
2019-02-06T05:50:03.216Z,0.00
2019-02-06T05:51:03.286Z,0.00
2019-02-06T05:52:03.324Z,0.00
2019-02-06T05:53:03.520Z,0.00
2019-02-06T05:54:03.902Z,0.00
2019-02-06T05:55:04.657Z,0.00
2019-02-06T05:56:04.165Z,0.00
2019-02-06T05:57:04.874Z,0.00
2019-02-06T05:58:04.443Z,0.00
2019-02-06T05:59:04.848Z,0.00
2019-02-06T06:00:04.633Z,0.00
2019-02-06T06:01:05.065Z,0.00
2019-02-06T06:02:04.927Z,0.00
2019-02-06T06:03:05.044Z,0.00
2019-02-06T06:04:05.302Z,0.00
2019-02-06T06:05:05.366Z,0.00
2019-02-06T06:06:05.777Z,0.00
2019-02-06T06:07:14.800Z,0.00
2019-02-06T06:08:06.707Z,0.00
2019-02-06T06:09:06.075Z,0.00
2019-02-06T06:10:06.201Z,0.00
2019-02-06T06:11:17.591Z,0.00
2019-02-06T06:12:07.790Z,0.00
2019-02-06T06:13:07.713Z,0.00
2019-02-06T06:14:07.023Z,0.00
2019-02-06T06:15:07.091Z,0.00
2019-02-06T06:16:07.339Z,4.00
2019-02-06T06:17:07.428Z,0.00
2019-02-06T06:18:07.567Z,0.00
2019-02-06T06:19:08.267Z,4.00
2019-02-06T06:20:08.011Z,0.00
2019-02-06T06:21:08.989Z,4.00
2019-02-06T06:22:09.027Z,0.00
2019-02-06T06:23:09.005Z,4.00
2019-02-06T06:24:09.257Z,4.00
2019-02-06T06:25:08.910Z,8.00
2019-02-06T06:26:08.974Z,8.00
2019-02-06T06:27:09.132Z,8.00
2019-02-06T06:28:09.291Z,12.00
2019-02-06T06:29:09.492Z,12.00
2019-02-06T06:30:10.783Z,12.00
2019-02-06T06:31:10.875Z,16.00
2019-02-06T06:32:10.126Z,20.00
2019-02-06T06:33:13.056Z,20.00
2019-02-06T06:34:10.399Z,24.00
2019-02-06T06:35:10.402Z,32.00
2019-02-06T06:36:10.550Z,36.00
2019-02-06T06:37:10.737Z,40.00
2019-02-06T06:38:10.745Z,44.00
2019-02-06T06:39:10.875Z,52.00
2019-02-06T06:40:11.071Z,60.00
2019-02-06T06:41:11.242Z,72.00
2019-02-06T06:42:11.324Z,80.00
2019-02-06T06:43:11.515Z,88.00
2019-02-06T06:44:11.649Z,100.00
2019-02-06T06:45:11.851Z,112.00
2019-02-06T06:46:11.956Z,124.00
2019-02-06T06:47:12.149Z,140.00
2019-02-06T06:48:12.298Z,156.00
2019-02-06T06:49:12.472Z,168.00
2019-02-06T06:50:12.669Z,184.00
2019-02-06T06:51:12.738Z,196.00
2019-02-06T06:52:12.936Z,208.00
2019-02-06T06:53:13.119Z,224.00
2019-02-06T06:54:13.218Z,240.00
2019-02-06T06:55:13.362Z,256.00
2019-02-06T06:56:13.520Z,272.00
2019-02-06T06:57:13.736Z,292.00
2019-02-06T06:58:13.948Z,312.00
2019-02-06T06:59:14.001Z,332.00
2019-02-06T07:00:14.214Z,356.00
2019-02-06T07:01:14.406Z,376.00
2019-02-06T07:02:14.557Z,400.00
2019-02-06T07:03:15.270Z,428.00
2019-02-06T07:04:14.871Z,456.00
2019-02-06T07:05:15.392Z,488.00
2019-02-06T07:06:15.132Z,520.00
2019-02-06T07:07:15.257Z,552.00
2019-02-06T07:08:16.524Z,584.00
2019-02-06T07:09:15.579Z,624.00
2019-02-06T07:10:15.795Z,656.00
2019-02-06T07:11:16.631Z,692.00
2019-02-06T07:12:16.091Z,728.00
2019-02-06T07:13:16.245Z,760.00
2019-02-06T07:14:16.377Z,804.00
2019-02-06T07:15:16.648Z,840.00
2019-02-06T07:16:16.837Z,876.00
2019-02-06T07:17:16.915Z,916.00
2019-02-06T07:18:17.078Z,960.00
2019-02-06T07:19:17.301Z,1004.00
2019-02-06T07:20:17.480Z,1052.00
2019-02-06T07:21:17.538Z,1096.00
2019-02-06T07:22:17.736Z,1148.00
2019-02-06T07:23:17.849Z,1204.00
2019-02-06T07:24:17.943Z,1256.00
2019-02-06T07:25:18.092Z,1312.00
2019-02-06T07:26:18.333Z,1372.00
2019-02-06T07:27:21.014Z,1436.00
2019-02-06T07:28:18.654Z,1500.00
2019-02-06T07:29:18.758Z,1568.00
2019-02-06T07:30:18.946Z,1636.00
2019-02-06T07:31:19.114Z,1704.00
2019-02-06T07:32:19.236Z,1780.00
2019-02-06T07:33:19.437Z,1860.00
2019-02-06T07:34:19.624Z,1928.00
2019-02-06T07:35:19.730Z,2008.00
2019-02-06T07:36:19.869Z,2076.00
2019-02-06T07:37:20.117Z,2152.00
2019-02-06T07:38:24.399Z,2232.00
2019-02-06T07:39:20.379Z,2312.00
2019-02-06T07:40:20.482Z,2388.00
2019-02-06T07:41:20.603Z,2464.00
2019-02-06T07:42:21.039Z,2540.00
2019-02-06T07:43:21.651Z,2624.00
2019-02-06T07:44:21.701Z,2700.00
2019-02-06T07:45:21.427Z,2776.00
2019-02-06T07:46:21.447Z,2860.00
2019-02-06T07:47:21.667Z,2940.00
2019-02-06T07:48:21.862Z,3016.00
2019-02-06T07:49:21.923Z,3092.00
2019-02-06T07:50:22.101Z,3172.00
2019-02-06T07:51:22.232Z,3260.00
2019-02-06T07:52:22.469Z,3348.00
2019-02-06T07:53:22.550Z,3436.00
2019-02-06T07:54:23.530Z,3508.00
2019-02-06T07:55:22.856Z,3592.00
2019-02-06T07:56:23.050Z,3688.00
2019-02-06T07:57:23.245Z,3780.00
2019-02-06T07:58:23.466Z,3840.00
2019-02-06T07:59:23.442Z,3944.00
2019-02-06T08:00:23.628Z,4052.00
2019-02-06T08:01:23.713Z,4152.00
2019-02-06T08:02:23.956Z,4252.00
2019-02-06T08:03:24.076Z,4376.00
2019-02-06T08:04:24.324Z,4516.00
2019-02-06T08:05:24.475Z,4640.00
2019-02-06T08:06:24.660Z,4740.00
2019-02-06T08:07:24.822Z,4856.00
2019-02-06T08:08:35.349Z,5012.00
2019-02-06T08:09:25.639Z,5140.00
2019-02-06T08:10:25.187Z,5232.00
2019-02-06T08:11:25.473Z,5336.00
2019-02-06T08:12:26.144Z,5424.00
2019-02-06T08:13:25.761Z,5516.00
2019-02-06T08:14:25.908Z,5608.00
2019-02-06T08:15:26.098Z,5748.00
2019-02-06T08:16:26.303Z,5860.00
2019-02-06T08:17:26.435Z,5976.00
2019-02-06T08:18:26.628Z,6112.00
2019-02-06T08:19:26.706Z,6216.00
2019-02-06T08:20:26.900Z,6348.00
2019-02-06T08:21:27.124Z,6484.00
2019-02-06T08:22:27.177Z,6628.00
2019-02-06T08:23:27.435Z,6792.00
2019-02-06T08:24:27.638Z,6988.00
2019-02-06T08:25:27.743Z,7196.00
2019-02-06T08:26:27.920Z,7392.00
2019-02-06T08:27:28.027Z,7664.00
2019-02-06T08:28:28.242Z,8108.00
2019-02-06T08:29:28.396Z,8476.00
2019-02-06T08:30:28.597Z,8744.00
2019-02-06T08:31:28.621Z,8532.00
2019-02-06T08:32:28.805Z,8640.00
2019-02-06T08:33:28.936Z,8944.00
2019-02-06T08:34:29.081Z,9448.00
2019-02-06T08:35:29.300Z,9024.00
2019-02-06T08:36:29.550Z,8664.00
2019-02-06T08:37:29.600Z,9332.00
2019-02-06T08:38:29.733Z,9692.00
2019-02-06T08:39:29.984Z,10272.00
2019-02-06T08:40:30.073Z,10544.00
2019-02-06T08:41:30.242Z,10544.00
2019-02-06T08:42:30.438Z,10672.00
2019-02-06T08:43:30.609Z,10848.00
2019-02-06T08:44:30.736Z,11348.00
2019-02-06T08:45:30.870Z,11676.00
2019-02-06T08:46:31.029Z,11476.00
2019-02-06T08:47:31.233Z,12396.00
2019-02-06T08:48:31.322Z,12452.00
2019-02-06T08:49:31.524Z,12216.00
2019-02-06T08:50:31.659Z,13100.00
2019-02-06T08:51:31.822Z,13260.00
2019-02-06T08:52:31.954Z,13900.00
2019-02-06T08:53:32.093Z,14368.00
2019-02-06T08:54:32.270Z,14864.00
2019-02-06T08:55:32.424Z,14636.00
2019-02-06T08:56:32.600Z,15904.00
2019-02-06T08:57:32.747Z,16224.00
2019-02-06T08:58:32.919Z,17120.00
2019-02-06T08:59:36.045Z,18112.00
2019-02-06T09:00:33.210Z,18464.00
2019-02-06T09:01:33.436Z,18592.00
2019-02-06T09:02:33.569Z,19616.00
2019-02-06T09:03:33.687Z,20192.00
2019-02-06T09:04:34.720Z,19936.00
2019-02-06T09:05:34.052Z,19872.00
2019-02-06T09:06:34.207Z,19168.00
2019-02-06T09:07:34.308Z,18944.00
2019-02-06T09:08:34.575Z,20928.00
2019-02-06T09:09:34.708Z,20992.00
2019-02-06T09:10:34.841Z,20512.00
2019-02-06T09:11:34.993Z,20288.00
2019-02-06T09:12:35.163Z,22208.00
2019-02-06T09:13:35.287Z,21728.00
2019-02-06T09:14:35.467Z,19296.00
2019-02-06T09:15:35.673Z,18272.00
2019-02-06T09:16:35.714Z,19360.00
2019-02-06T09:17:35.906Z,20800.00
2019-02-06T09:18:36.110Z,22464.00
2019-02-06T09:19:36.232Z,21760.00
2019-02-06T09:20:36.422Z,22496.00
2019-02-06T09:21:36.633Z,21344.00
2019-02-06T09:22:36.760Z,19744.00
2019-02-06T09:23:36.921Z,20768.00
2019-02-06T09:24:37.073Z,22368.00
2019-02-06T09:25:37.150Z,23648.00
2019-02-06T09:26:37.411Z,22816.00
2019-02-06T09:27:37.581Z,23712.00
2019-02-06T09:28:37.729Z,25408.00
2019-02-06T09:29:37.838Z,26976.00
2019-02-06T09:30:38.054Z,26304.00
2019-02-06T09:31:38.188Z,25856.00
2019-02-06T09:32:38.318Z,19808.00
2019-02-06T09:33:38.468Z,21024.00
2019-02-06T09:34:38.605Z,24576.00
2019-02-06T09:35:38.787Z,27360.00
2019-02-06T09:36:39.023Z,27648.00
2019-02-06T09:37:39.206Z,26688.00
2019-02-06T09:38:39.344Z,29056.00
2019-02-06T09:39:39.481Z,30368.00
2019-02-06T09:40:39.640Z,28672.00
2019-02-06T09:41:39.799Z,27072.00
2019-02-06T09:42:39.998Z,27360.00
2019-02-06T09:43:40.173Z,29280.00
2019-02-06T09:44:40.368Z,30080.00
2019-02-06T09:45:40.477Z,30144.00
2019-02-06T09:46:40.674Z,30976.00
2019-02-06T09:47:40.769Z,32800.00
2019-02-06T09:48:41.010Z,32512.00
2019-02-06T09:49:41.758Z,32608.00
2019-02-06T09:50:41.346Z,34304.00
2019-02-06T09:51:41.516Z,35744.00
2019-02-06T09:52:41.790Z,34784.00
2019-02-06T09:53:41.922Z,33440.00
2019-02-06T09:54:42.082Z,32512.00
2019-02-06T09:55:42.285Z,34560.00
2019-02-06T09:56:43.257Z,35488.00
2019-02-06T09:57:42.532Z,35904.00
2019-02-06T09:58:42.720Z,36480.00
2019-02-06T09:59:42.914Z,36704.00
2019-02-06T10:00:43.055Z,38528.00
2019-02-06T10:01:43.239Z,39296.00
2019-02-06T10:02:43.352Z,38080.00
2019-02-06T10:03:43.583Z,37216.00
2019-02-06T10:04:43.736Z,38400.00
2019-02-06T10:05:43.911Z,40192.00
2019-02-06T10:06:44.099Z,42144.00
2019-02-06T10:07:46.082Z,42176.00
2019-02-06T10:08:44.395Z,40736.00
2019-02-06T10:09:44.562Z,35136.00
2019-02-06T10:10:44.769Z,42880.00
2019-02-06T10:11:44.963Z,45760.00
2019-02-06T10:12:45.031Z,45152.00
2019-02-06T10:13:45.222Z,44288.00
2019-02-06T10:14:45.350Z,47616.00
2019-02-06T10:15:45.628Z,49536.00
2019-02-06T10:16:45.650Z,48832.00
2019-02-06T10:17:45.864Z,42528.00
2019-02-06T10:18:46.003Z,45312.00
2019-02-06T10:19:46.155Z,48256.00
2019-02-06T10:20:46.319Z,51776.00
2019-02-06T10:21:46.452Z,54176.00
2019-02-06T10:22:47.162Z,53792.00
2019-02-06T10:23:46.767Z,51680.00
2019-02-06T10:24:46.993Z,49728.00
2019-02-06T10:25:47.145Z,50304.00
2019-02-06T10:26:47.366Z,52128.00
2019-02-06T10:27:47.527Z,53728.00
2019-02-06T10:28:47.671Z,54304.00
2019-02-06T10:29:47.909Z,55616.00
2019-02-06T10:30:48.028Z,57792.00
2019-02-06T10:31:48.186Z,58784.00
2019-02-06T10:32:48.330Z,57664.00
2019-02-06T10:33:48.571Z,56320.00
2019-02-06T10:34:48.680Z,58016.00
2019-02-06T10:35:51.796Z,61792.00
2019-02-06T10:36:49.035Z,59712.00
2019-02-06T10:37:49.189Z,61600.00
2019-02-06T10:38:49.349Z,57248.00
2019-02-06T10:39:49.493Z,55360.00
2019-02-06T10:40:49.720Z,52768.00
2019-02-06T10:41:49.894Z,53184.00
2019-02-06T10:42:50.030Z,54208.00
2019-02-06T10:43:50.219Z,53568.00
2019-02-06T10:44:50.430Z,53536.00
2019-02-06T10:45:50.570Z,53664.00
2019-02-06T10:46:50.702Z,55296.00
2019-02-06T10:47:50.908Z,56832.00
2019-02-06T10:48:51.071Z,58144.00
2019-02-06T10:49:51.294Z,59008.00
2019-02-06T10:50:51.423Z,57760.00
2019-02-06T10:51:51.622Z,56608.00
2019-02-06T10:52:51.725Z,55968.00
2019-02-06T10:53:51.907Z,54080.00
2019-02-06T10:54:52.117Z,55008.00
2019-02-06T10:55:52.225Z,53216.00
2019-02-06T10:56:52.452Z,50336.00
2019-02-06T10:57:52.678Z,48640.00
2019-02-06T10:58:52.809Z,47072.00
2019-02-06T10:59:52.966Z,45376.00
2019-02-06T11:00:53.147Z,41760.00
2019-02-06T11:01:53.287Z,40064.00
2019-02-06T11:02:53.454Z,40352.00
2019-02-06T11:03:53.599Z,41536.00
2019-02-06T11:04:53.829Z,42272.00
2019-02-06T11:05:53.913Z,44832.00
2019-02-06T11:06:54.120Z,45216.00
2019-02-06T11:07:54.305Z,45088.00
2019-02-06T11:08:54.413Z,43360.00
2019-02-06T11:09:54.548Z,42528.00
2019-02-06T11:10:54.770Z,43456.00
2019-02-06T11:11:54.881Z,41856.00
2019-02-06T11:12:55.070Z,39584.00
2019-02-06T11:13:55.264Z,34304.00
2019-02-06T11:14:55.440Z,35808.00
2019-02-06T11:15:55.653Z,35552.00
2019-02-06T11:16:55.735Z,34784.00
2019-02-06T11:17:55.897Z,34784.00
2019-02-06T11:18:56.031Z,36416.00
2019-02-06T11:19:56.230Z,36960.00
2019-02-06T11:20:56.350Z,35136.00
2019-02-06T11:21:56.513Z,35712.00
2019-02-06T11:22:56.676Z,36704.00
2019-02-06T11:23:56.856Z,36384.00
2019-02-06T11:24:57.081Z,35552.00
2019-02-06T11:25:57.186Z,36768.00
2019-02-06T11:26:57.353Z,37184.00
2019-02-06T11:27:57.546Z,35136.00
2019-02-06T11:28:57.683Z,37728.00
2019-02-06T11:29:57.884Z,36256.00
2019-02-06T11:30:58.138Z,37312.00
2019-02-06T11:31:58.250Z,38848.00
2019-02-06T11:32:58.421Z,38208.00
2019-02-06T11:33:58.580Z,38496.00
2019-02-06T11:34:58.741Z,37120.00
2019-02-06T11:35:58.857Z,36608.00
2019-02-06T11:36:59.011Z,39488.00
2019-02-06T11:37:59.227Z,41376.00
2019-02-06T11:38:59.403Z,44384.00
2019-02-06T11:39:59.593Z,43840.00
2019-02-06T11:40:59.690Z,46432.00
2019-02-06T11:41:59.862Z,52576.00
2019-02-06T11:43:00.088Z,56128.00
2019-02-06T11:44:00.280Z,58688.00
2019-02-06T11:45:00.520Z,58944.00
2019-02-06T11:46:00.600Z,57888.00
2019-02-06T11:47:00.766Z,56192.00
2019-02-06T11:48:00.902Z,55200.00
2019-02-06T11:49:01.035Z,55936.00
2019-02-06T11:50:01.173Z,56608.00
2019-02-06T11:51:01.336Z,57952.00
2019-02-06T11:52:01.566Z,58208.00
2019-02-06T11:53:02.354Z,59296.00
2019-02-06T11:54:01.889Z,59232.00
2019-02-06T11:55:01.987Z,58240.00
2019-02-06T11:56:02.224Z,59008.00
2019-02-06T11:57:02.366Z,60544.00
2019-02-06T11:58:02.487Z,59712.00
2019-02-06T11:59:02.753Z,59040.00
2019-02-06T12:00:02.936Z,58976.00
2019-02-06T12:01:03.048Z,57536.00
2019-02-06T12:02:03.285Z,59104.00
2019-02-06T12:03:03.456Z,63552.00
2019-02-06T12:04:03.649Z,65920.00
2019-02-06T12:05:03.769Z,64928.00
2019-02-06T12:06:03.881Z,65568.00
2019-02-06T12:07:04.132Z,64032.00
2019-02-06T12:08:04.234Z,62336.00
2019-02-06T12:09:04.483Z,62592.00
2019-02-06T12:10:09.816Z,62336.00
2019-02-06T12:11:04.740Z,62272.00
2019-02-06T12:12:04.951Z,66176.00
2019-02-06T12:13:05.155Z,69824.00
2019-02-06T12:14:05.287Z,72352.00
2019-02-06T12:15:05.440Z,73792.00
2019-02-06T12:16:05.523Z,74176.00
2019-02-06T12:17:05.778Z,76512.00
2019-02-06T12:18:06.005Z,77152.00
2019-02-06T12:19:06.065Z,75040.00
2019-02-06T12:20:06.255Z,75200.00
2019-02-06T12:21:06.432Z,70560.00
2019-02-06T12:22:06.643Z,70048.00
2019-02-06T12:23:06.795Z,69248.00
2019-02-06T12:24:06.957Z,67296.00
2019-02-06T12:25:07.088Z,69088.00
2019-02-06T12:26:07.328Z,66176.00
2019-02-06T12:27:07.495Z,64448.00
2019-02-06T12:28:07.688Z,68128.00
2019-02-06T12:29:07.823Z,70592.00
2019-02-06T12:30:08.001Z,75552.00
2019-02-06T12:31:08.189Z,81152.00
2019-02-06T12:32:08.303Z,79552.00
2019-02-06T12:33:08.528Z,81920.00
2019-02-06T12:34:08.687Z,81888.00
2019-02-06T12:35:08.924Z,82720.00
2019-02-06T12:36:09.017Z,85088.00
2019-02-06T12:37:09.195Z,81536.00
2019-02-06T12:38:09.335Z,79168.00
2019-02-06T12:39:09.536Z,78112.00
2019-02-06T12:40:20.773Z,72832.00
2019-02-06T12:41:09.845Z,69280.00
2019-02-06T12:42:10.037Z,69696.00
2019-02-06T12:43:10.916Z,73184.00
2019-02-06T12:44:10.448Z,74912.00
2019-02-06T12:45:10.616Z,70848.00
2019-02-06T12:46:10.741Z,69664.00
2019-02-06T12:47:11.109Z,61664.00
2019-02-06T12:48:12.390Z,58720.00
2019-02-06T12:49:14.416Z,59968.00
2019-02-06T12:50:11.494Z,68288.00
2019-02-06T12:51:11.589Z,68928.00
2019-02-06T12:52:11.809Z,70496.00
2019-02-06T12:53:12.073Z,66592.00
2019-02-06T12:54:12.291Z,61184.00
2019-02-06T12:55:12.330Z,53856.00
2019-02-06T12:56:12.521Z,51200.00
2019-02-06T12:57:12.807Z,44224.00
2019-02-06T12:58:13.023Z,58720.00
2019-02-06T12:59:13.122Z,58784.00
2019-02-06T13:00:13.294Z,62880.00
2019-02-06T13:01:13.479Z,58720.00
2019-02-06T13:02:13.621Z,61184.00
2019-02-06T13:03:13.789Z,60512.00
2019-02-06T13:04:14.026Z,62240.00
2019-02-06T13:05:14.153Z,63904.00
2019-02-06T13:06:14.359Z,63264.00
2019-02-06T13:07:14.579Z,65024.00
2019-02-06T13:08:17.234Z,65056.00
2019-02-06T13:09:14.877Z,66944.00
2019-02-06T13:10:14.967Z,65152.00
2019-02-06T13:11:15.186Z,62208.00
2019-02-06T13:12:15.418Z,65632.00
2019-02-06T13:13:15.584Z,61920.00
2019-02-06T13:14:15.727Z,63744.00
2019-02-06T13:15:15.936Z,64672.00
2019-02-06T13:16:16.144Z,64928.00
2019-02-06T13:17:16.326Z,62784.00
2019-02-06T13:18:16.502Z,58976.00
2019-02-06T13:19:16.563Z,57248.00
2019-02-06T13:20:16.841Z,52032.00
2019-02-06T13:21:16.914Z,46496.00
2019-02-06T13:22:17.078Z,43392.00
2019-02-06T13:23:17.343Z,41760.00
2019-02-06T13:24:17.545Z,39584.00
2019-02-06T13:25:17.596Z,44672.00
2019-02-06T13:26:17.827Z,50304.00
2019-02-06T13:27:17.856Z,44224.00
2019-02-06T13:28:18.079Z,41952.00
2019-02-06T13:29:18.290Z,42752.00
2019-02-06T13:30:18.486Z,38496.00
2019-02-06T13:31:18.607Z,41632.00
2019-02-06T13:32:18.746Z,39680.00
2019-02-06T13:33:18.902Z,36192.00
2019-02-06T13:34:19.202Z,34720.00
2019-02-06T13:35:19.341Z,37056.00
2019-02-06T13:36:19.459Z,40576.00
2019-02-06T13:37:19.887Z,39808.00
2019-02-06T13:38:22.932Z,36288.00
2019-02-06T13:39:19.953Z,35232.00
2019-02-06T13:40:20.166Z,39136.00
2019-02-06T13:41:20.324Z,40128.00
2019-02-06T13:42:20.482Z,37504.00
2019-02-06T13:43:20.657Z,30688.00
2019-02-06T13:44:20.913Z,32928.00
2019-02-06T13:45:20.952Z,36224.00
2019-02-06T13:46:21.223Z,37184.00
2019-02-06T13:47:21.368Z,39328.00
2019-02-06T13:48:21.580Z,37568.00
2019-02-06T13:49:21.776Z,36640.00
2019-02-06T13:50:22.847Z,33792.00
2019-02-06T13:51:22.196Z,31552.00
2019-02-06T13:52:22.345Z,28512.00
2019-02-06T13:53:22.476Z,24192.00
2019-02-06T13:54:22.646Z,20832.00
2019-02-06T13:55:22.873Z,20928.00
2019-02-06T13:56:23.101Z,21888.00
2019-02-06T13:57:33.422Z,21696.00
2019-02-06T13:58:23.831Z,26592.00
2019-02-06T13:59:23.526Z,29696.00
2019-02-06T14:00:23.717Z,32352.00
2019-02-06T14:01:25.861Z,28832.00
2019-02-06T14:02:24.146Z,31904.00
2019-02-06T14:03:24.170Z,34432.00
2019-02-06T14:04:24.326Z,40224.00
2019-02-06T14:05:24.557Z,41888.00
2019-02-06T14:06:25.314Z,43648.00
2019-02-06T14:07:24.985Z,42080.00
2019-02-06T14:08:25.185Z,44608.00
2019-02-06T14:09:26.146Z,44544.00
2019-02-06T14:10:25.475Z,40224.00
2019-02-06T14:11:25.625Z,39008.00
2019-02-06T14:12:25.790Z,36512.00
2019-02-06T14:13:25.914Z,31456.00
2019-02-06T14:14:27.009Z,31072.00
2019-02-06T14:15:26.282Z,26784.00
2019-02-06T14:16:27.134Z,26944.00
2019-02-06T14:17:26.628Z,28032.00
2019-02-06T14:18:26.808Z,24512.00
2019-02-06T14:19:26.976Z,19232.00
2019-02-06T14:20:27.190Z,18112.00
2019-02-06T14:21:27.292Z,19968.00
2019-02-06T14:22:27.420Z,21088.00
2019-02-06T14:23:27.622Z,20384.00
2019-02-06T14:24:27.789Z,21056.00
2019-02-06T14:25:27.980Z,21152.00
2019-02-06T14:26:28.208Z,21344.00
2019-02-06T14:27:28.860Z,18624.00
2019-02-06T14:28:28.515Z,20544.00
2019-02-06T14:29:28.618Z,23328.00
2019-02-06T14:30:28.774Z,23264.00
2019-02-06T14:31:29.007Z,21376.00
2019-02-06T14:32:29.132Z,21184.00
2019-02-06T14:33:29.211Z,24960.00
2019-02-06T14:34:29.496Z,24928.00
2019-02-06T14:35:29.603Z,22048.00
2019-02-06T14:36:30.227Z,20992.00
2019-02-06T14:37:29.976Z,22496.00
2019-02-06T14:38:30.103Z,24256.00
2019-02-06T14:39:30.276Z,26400.00
2019-02-06T14:40:30.437Z,37088.00
2019-02-06T14:41:30.641Z,39040.00
2019-02-06T14:42:30.765Z,44448.00
2019-02-06T14:43:30.912Z,50016.00
2019-02-06T14:44:31.093Z,45120.00
2019-02-06T14:45:31.265Z,40800.00
2019-02-06T14:46:31.419Z,40064.00
2019-02-06T14:47:31.544Z,32320.00
2019-02-06T14:48:31.788Z,31008.00
2019-02-06T14:49:31.911Z,30816.00
2019-02-06T14:50:32.065Z,35712.00
2019-02-06T14:51:32.277Z,34848.00
2019-02-06T14:52:32.468Z,33248.00
2019-02-06T14:53:32.634Z,25152.00
2019-02-06T14:54:32.786Z,31744.00
2019-02-06T14:55:32.965Z,30144.00
2019-02-06T14:56:33.065Z,31648.00
2019-02-06T14:57:33.281Z,41024.00
2019-02-06T14:58:33.477Z,43136.00
2019-02-06T14:59:33.511Z,41888.00
2019-02-06T15:00:33.803Z,36288.00
2019-02-06T15:01:33.890Z,33792.00
2019-02-06T15:02:34.031Z,28480.00
2019-02-06T15:03:34.304Z,25344.00
2019-02-06T15:04:34.381Z,22112.00
2019-02-06T15:05:34.532Z,21856.00
2019-02-06T15:06:34.741Z,22080.00
2019-02-06T15:07:34.892Z,18880.00
2019-02-06T15:08:35.909Z,18592.00
2019-02-06T15:09:35.209Z,18656.00
2019-02-06T15:10:35.360Z,16384.00
2019-02-06T15:11:35.538Z,16448.00
2019-02-06T15:12:35.683Z,17120.00
2019-02-06T15:13:35.944Z,16128.00
2019-02-06T15:14:36.049Z,19680.00
2019-02-06T15:15:36.202Z,21312.00
2019-02-06T15:16:36.857Z,21984.00
2019-02-06T15:17:36.534Z,22432.00
2019-02-06T15:18:36.710Z,20192.00
2019-02-06T15:19:36.957Z,19424.00
2019-02-06T15:20:37.008Z,16448.00
2019-02-06T15:21:37.248Z,12976.00
2019-02-06T15:22:37.400Z,11612.00
2019-02-06T15:23:37.535Z,11908.00
2019-02-06T15:24:37.705Z,10524.00
2019-02-06T15:25:37.876Z,9520.00
2019-02-06T15:26:38.070Z,9712.00
2019-02-06T15:27:38.914Z,10856.00
2019-02-06T15:28:38.299Z,14592.00
2019-02-06T15:29:38.455Z,14496.00
2019-02-06T15:30:38.598Z,14432.00
2019-02-06T15:31:38.769Z,12896.00
2019-02-06T15:32:38.933Z,8908.00
2019-02-06T15:33:39.108Z,7640.00
2019-02-06T15:34:39.260Z,6764.00
2019-02-06T15:35:39.418Z,6928.00
2019-02-06T15:36:39.668Z,6612.00
2019-02-06T15:37:39.741Z,6212.00
2019-02-06T15:38:39.895Z,6528.00
2019-02-06T15:39:40.089Z,5408.00
2019-02-06T15:40:40.207Z,4424.00
2019-02-06T15:41:40.504Z,4052.00
2019-02-06T15:42:43.348Z,3824.00
2019-02-06T15:43:40.783Z,3620.00
2019-02-06T15:44:40.940Z,3476.00
2019-02-06T15:45:41.072Z,3344.00
2019-02-06T15:46:41.228Z,3188.00
2019-02-06T15:47:41.459Z,3008.00
2019-02-06T15:48:41.669Z,2928.00
2019-02-06T15:49:41.724Z,2904.00
2019-02-06T15:50:42.079Z,2848.00
2019-02-06T15:51:42.111Z,2728.00
2019-02-06T15:52:42.297Z,2568.00
2019-02-06T15:53:42.423Z,2424.00
2019-02-06T15:54:42.569Z,2324.00
2019-02-06T15:55:42.768Z,2236.00
2019-02-06T15:56:42.898Z,2132.00
2019-02-06T15:57:43.125Z,1984.00
2019-02-06T15:58:43.149Z,1868.00
2019-02-06T15:59:44.537Z,1764.00
2019-02-06T16:00:43.594Z,1664.00
2019-02-06T16:01:43.934Z,1576.00
2019-02-06T16:02:43.980Z,1488.00
2019-02-06T16:03:44.049Z,1400.00
2019-02-06T16:04:44.206Z,1320.00
2019-02-06T16:05:44.662Z,1240.00
2019-02-06T16:06:44.722Z,1164.00
2019-02-06T16:07:44.833Z,1088.00
2019-02-06T16:08:45.041Z,1008.00
2019-02-06T16:09:45.184Z,936.00
2019-02-06T16:10:45.325Z,864.00
2019-02-06T16:11:45.417Z,796.00